sensor_id;sensor_type;location;lat;lon;timestamp;pressure;altitude;pressure_sealevel;temperature;humidity
52983;BME280;48698;45.736;13.926;2024-02-26T00:03:13;96874.81;;;0.79;100.00
52983;BME280;48698;45.736;13.926;2024-02-26T00:08:17;96903.41;;;0.83;100.00
52983;BME280;48698;45.736;13.926;2024-02-26T00:13:20;96786.38;;;0.28;100.00
52983;BME280;48698;45.736;13.926;2024-02-26T00:18:25;96898.78;;;0.96;100.00
52983;BME280;48698;45.736;13.926;2024-02-26T00:23:29;96899.28;;;0.75;100.00
52983;BME280;48698;45.736;13.926;2024-02-26T00:28:32;96935.84;;;1.10;100.00
52983;BME280;48698;45.736;13.926;2024-02-26T00:33:36;96932.84;;;0.91;100.00
52983;BME280;48698;45.736;13.926;2024-02-26T00:38:40;96630.03;;;-0.90;100.00
52983;BME280;48698;45.736;13.926;2024-02-26T00:43:44;96907.56;;;0.57;100.00
52983;BME280;48698;45.736;13.926;2024-02-26T00:48:48;96873.84;;;0.09;100.00
52983;BME280;48698;45.736;13.926;2024-02-26T00:53:51;96900.47;;;0.97;100.00
52983;BME280;48698;45.736;13.926;2024-02-26T00:58:55;96655.25;;;-0.17;100.00
52983;BME280;48698;45.736;13.926;2024-02-26T01:03:58;96850.91;;;0.59;100.00
52983;BME280;48698;45.736;13.926;2024-02-26T01:09:02;96893.81;;;0.85;100.00
52983;BME280;48698;45.736;13.926;2024-02-26T01:14:07;96809.97;;;0.59;100.00
52983;BME280;48698;45.736;13.926;2024-02-26T01:19:11;96853.31;;;1.00;100.00
52983;BME280;48698;45.736;13.926;2024-02-26T01:24:15;96812.22;;;0.39;100.00
52983;BME280;48698;45.736;13.926;2024-02-26T01:29:19;96849.56;;;1.10;100.00
52983;BME280;48698;45.736;13.926;2024-02-26T01:34:22;96528.72;;;-1.03;100.00
52983;BME280;48698;45.736;13.926;2024-02-26T01:39:26;96815.22;;;0.58;100.00
52983;BME280;48698;45.736;13.926;2024-02-26T01:44:32;96755.72;;;0.36;100.00
52983;BME280;48698;45.736;13.926;2024-02-26T01:49:36;96791.00;;;0.52;100.00
52983;BME280;48698;45.736;13.926;2024-02-26T01:54:42;96870.41;;;1.13;100.00
52983;BME280;48698;45.736;13.926;2024-02-26T01:59:48;96756.47;;;0.40;100.00
52983;BME280;48698;45.736;13.926;2024-02-26T02:04:52;96794.66;;;0.79;100.00
52983;BME280;48698;45.736;13.926;2024-02-26T02:09:56;96583.72;;;-0.79;100.00
52983;BME280;48698;45.736;13.926;2024-02-26T02:15:00;96722.31;;;0.47;100.00
52983;BME280;48698;45.736;13.926;2024-02-26T02:20:08;96770.38;;;0.40;100.00
52983;BME280;48698;45.736;13.926;2024-02-26T02:25:12;96778.47;;;0.65;100.00
52983;BME280;48698;45.736;13.926;2024-02-26T02:30:16;96803.00;;;0.92;100.00
52983;BME280;48698;45.736;13.926;2024-02-26T02:35:19;96689.78;;;-0.07;100.00
52983;BME280;48698;45.736;13.926;2024-02-26T02:40:23;96837.72;;;0.97;100.00
52983;BME280;48698;45.736;13.926;2024-02-26T02:45:28;96864.34;;;1.13;100.00
52983;BME280;48698;45.736;13.926;2024-02-26T02:50:32;96691.75;;;0.19;100.00
52983;BME280;48698;45.736;13.926;2024-02-26T02:55:37;96838.75;;;1.24;100.00
52983;BME280;48698;45.736;13.926;2024-02-26T03:00:40;96790.69;;;0.63;100.00
52983;BME280;48698;45.736;13.926;2024-02-26T03:05:44;96756.94;;;0.56;100.00
52983;BME280;48698;45.736;13.926;2024-02-26T03:10:48;96748.13;;;0.60;100.00
52983;BME280;48698;45.736;13.926;2024-02-26T03:15:52;96834.50;;;0.87;100.00
52983;BME280;48698;45.736;13.926;2024-02-26T03:20:56;96633.53;;;-0.19;100.00
52983;BME280;48698;45.736;13.926;2024-02-26T03:26:00;96565.22;;;-0.68;100.00
52983;BME280;48698;45.736;13.926;2024-02-26T03:31:04;96707.19;;;-0.08;100.00
52983;BME280;48698;45.736;13.926;2024-02-26T03:36:07;96587.81;;;-0.69;100.00
52983;BME280;48698;45.736;13.926;2024-02-26T03:41:11;96723.56;;;-0.01;100.00
52983;BME280;48698;45.736;13.926;2024-02-26T03:46:14;96713.78;;;-0.28;100.00
52983;BME280;48698;45.736;13.926;2024-02-26T03:51:18;96774.16;;;0.29;100.00
52983;BME280;48698;45.736;13.926;2024-02-26T03:56:22;96791.66;;;0.25;100.00
52983;BME280;48698;45.736;13.926;2024-02-26T04:01:26;96746.59;;;0.17;100.00
52983;BME280;48698;45.736;13.926;2024-02-26T04:06:30;96809.28;;;0.52;100.00
52983;BME280;48698;45.736;13.926;2024-02-26T04:11:33;96811.19;;;0.09;100.00
52983;BME280;48698;45.736;13.926;2024-02-26T04:16:37;96713.53;;;-0.19;100.00
52983;BME280;48698;45.736;13.926;2024-02-26T04:21:41;96829.94;;;0.62;100.00
52983;BME280;48698;45.736;13.926;2024-02-26T04:26:45;96670.69;;;-0.44;100.00
52983;BME280;48698;45.736;13.926;2024-02-26T04:31:49;96674.66;;;-0.30;100.00
52983;BME280;48698;45.736;13.926;2024-02-26T04:37:02;96816.94;;;0.59;100.00
52983;BME280;48698;45.736;13.926;2024-02-26T04:42:06;96815.31;;;0.55;100.00
52983;BME280;48698;45.736;13.926;2024-02-26T04:47:10;96806.31;;;0.31;100.00
52983;BME280;48698;45.736;13.926;2024-02-26T04:52:14;96752.94;;;0.07;100.00
52983;BME280;48698;45.736;13.926;2024-02-26T04:57:17;96702.78;;;-0.41;100.00
52983;BME280;48698;45.736;13.926;2024-02-26T05:02:23;96760.72;;;-0.27;100.00
52983;BME280;48698;45.736;13.926;2024-02-26T05:07:27;96790.06;;;-0.17;100.00
52983;BME280;48698;45.736;13.926;2024-02-26T05:12:31;96688.59;;;-0.68;100.00
52983;BME280;48698;45.736;13.926;2024-02-26T05:17:35;96782.81;;;-0.06;100.00
52983;BME280;48698;45.736;13.926;2024-02-26T05:22:38;96808.06;;;-0.07;100.00
52983;BME280;48698;45.736;13.926;2024-02-26T05:27:44;96671.22;;;-0.67;100.00
52983;BME280;48698;45.736;13.926;2024-02-26T05:32:48;96660.25;;;-0.81;100.00
52983;BME280;48698;45.736;13.926;2024-02-26T05:37:51;96690.44;;;-0.73;100.00
52983;BME280;48698;45.736;13.926;2024-02-26T05:42:55;96713.59;;;-0.58;100.00
52983;BME280;48698;45.736;13.926;2024-02-26T05:47:59;96647.00;;;-1.12;100.00
52983;BME280;48698;45.736;13.926;2024-02-26T05:53:03;96830.06;;;0.20;100.00
52983;BME280;48698;45.736;13.926;2024-02-26T05:58:06;96811.13;;;-0.26;100.00
52983;BME280;48698;45.736;13.926;2024-02-26T06:03:10;96633.53;;;-1.31;100.00
52983;BME280;48698;45.736;13.926;2024-02-26T06:08:14;96547.81;;;-2.27;100.00
52983;BME280;48698;45.736;13.926;2024-02-26T06:13:17;96822.97;;;-0.52;100.00
52983;BME280;48698;45.736;13.926;2024-02-26T06:18:21;96781.88;;;-0.40;100.00
52983;BME280;48698;45.736;13.926;2024-02-26T06:23:27;96880.84;;;0.45;100.00
52983;BME280;48698;45.736;13.926;2024-02-26T06:28:31;96796.56;;;0.02;100.00
52983;BME280;48698;45.736;13.926;2024-02-26T06:33:36;96882.34;;;0.56;100.00
52983;BME280;48698;45.736;13.926;2024-02-26T06:38:40;96664.75;;;-0.51;100.00
52983;BME280;48698;45.736;13.926;2024-02-26T06:43:43;96730.44;;;0.03;100.00
52983;BME280;48698;45.736;13.926;2024-02-26T06:48:50;96780.66;;;0.13;100.00
52983;BME280;48698;45.736;13.926;2024-02-26T06:53:57;96899.06;;;0.84;100.00
52983;BME280;48698;45.736;13.926;2024-02-26T06:59:01;96838.50;;;0.67;100.00
52983;BME280;48698;45.736;13.926;2024-02-26T07:04:04;96794.91;;;0.69;100.00
52983;BME280;48698;45.736;13.926;2024-02-26T07:09:08;96862.56;;;1.45;100.00
52983;BME280;48698;45.736;13.926;2024-02-26T07:14:12;96882.63;;;1.76;100.00
52983;BME280;48698;45.736;13.926;2024-02-26T07:19:16;96905.75;;;2.20;100.00
52983;BME280;48698;45.736;13.926;2024-02-26T07:24:20;96869.28;;;2.14;100.00
52983;BME280;48698;45.736;13.926;2024-02-26T07:29:23;96927.34;;;2.84;100.00
52983;BME280;48698;45.736;13.926;2024-02-26T07:34:27;96929.56;;;2.96;100.00
52983;BME280;48698;45.736;13.926;2024-02-26T07:39:32;96904.06;;;3.01;100.00
52983;BME280;48698;45.736;13.926;2024-02-26T07:44:36;96937.47;;;3.47;100.00
52983;BME280;48698;45.736;13.926;2024-02-26T07:49:40;96854.78;;;3.10;100.00
52983;BME280;48698;45.736;13.926;2024-02-26T07:54:44;96853.84;;;3.36;100.00
52983;BME280;48698;45.736;13.926;2024-02-26T07:59:48;96871.97;;;3.44;100.00
52983;BME280;48698;45.736;13.926;2024-02-26T08:04:53;96929.63;;;3.95;100.00
52983;BME280;48698;45.736;13.926;2024-02-26T08:09:56;96890.03;;;4.01;100.00
52983;BME280;48698;45.736;13.926;2024-02-26T08:15:00;96844.31;;;3.82;100.00
52983;BME280;48698;45.736;13.926;2024-02-26T08:20:05;96827.53;;;3.62;100.00
52983;BME280;48698;45.736;13.926;2024-02-26T08:25:09;96867.38;;;4.20;100.00
52983;BME280;48698;45.736;13.926;2024-02-26T08:30:14;96839.25;;;4.22;100.00
52983;BME280;48698;45.736;13.926;2024-02-26T08:35:20;96953.66;;;4.99;100.00
52983;BME280;48698;45.736;13.926;2024-02-26T08:40:23;96932.28;;;5.28;100.00
52983;BME280;48698;45.736;13.926;2024-02-26T08:45:27;96948.44;;;5.81;100.00
52983;BME280;48698;45.736;13.926;2024-02-26T08:50:32;96963.22;;;6.26;100.00
52983;BME280;48698;45.736;13.926;2024-02-26T08:55:35;96924.16;;;6.52;100.00
52983;BME280;48698;45.736;13.926;2024-02-26T09:00:39;96962.50;;;7.15;100.00
52983;BME280;48698;45.736;13.926;2024-02-26T09:05:43;96885.75;;;7.01;100.00
52983;BME280;48698;45.736;13.926;2024-02-26T09:10:46;96921.50;;;7.25;100.00
52983;BME280;48698;45.736;13.926;2024-02-26T09:15:50;96949.44;;;7.65;100.00
52983;BME280;48698;45.736;13.926;2024-02-26T09:20:54;96954.16;;;7.76;100.00
52983;BME280;48698;45.736;13.926;2024-02-26T09:25:57;96907.22;;;7.81;100.00
52983;BME280;48698;45.736;13.926;2024-02-26T09:31:01;96859.25;;;7.89;100.00
52983;BME280;48698;45.736;13.926;2024-02-26T09:36:04;96888.44;;;8.36;100.00
52983;BME280;48698;45.736;13.926;2024-02-26T09:41:14;96628.78;;;7.18;100.00
52983;BME280;48698;45.736;13.926;2024-02-26T09:46:19;96830.22;;;8.82;100.00
52983;BME280;48698;45.736;13.926;2024-02-26T09:51:23;96804.38;;;8.72;100.00
52983;BME280;48698;45.736;13.926;2024-02-26T09:56:30;96819.06;;;8.77;100.00
52983;BME280;48698;45.736;13.926;2024-02-26T10:01:41;96840.53;;;9.03;100.00
52983;BME280;48698;45.736;13.926;2024-02-26T10:06:45;96767.50;;;8.53;100.00
52983;BME280;48698;45.736;13.926;2024-02-26T10:11:49;96790.31;;;8.71;100.00
52983;BME280;48698;45.736;13.926;2024-02-26T10:16:54;96641.78;;;8.01;100.00
52983;BME280;48698;45.736;13.926;2024-02-26T10:21:58;96811.81;;;9.11;100.00
52983;BME280;48698;45.736;13.926;2024-02-26T10:27:02;96704.81;;;8.69;100.00
52983;BME280;48698;45.736;13.926;2024-02-26T10:32:06;96737.00;;;9.07;100.00
52983;BME280;48698;45.736;13.926;2024-02-26T10:37:10;96823.19;;;9.57;100.00
52983;BME280;48698;45.736;13.926;2024-02-26T10:42:14;96820.09;;;9.64;100.00
52983;BME280;48698;45.736;13.926;2024-02-26T10:47:18;96802.63;;;9.46;100.00
52983;BME280;48698;45.736;13.926;2024-02-26T10:52:22;96716.19;;;9.15;100.00
52983;BME280;48698;45.736;13.926;2024-02-26T10:57:34;96798.59;;;9.69;100.00
52983;BME280;48698;45.736;13.926;2024-02-26T11:02:40;96752.97;;;9.64;100.00
52983;BME280;48698;45.736;13.926;2024-02-26T11:07:44;96574.09;;;8.86;100.00
52983;BME280;48698;45.736;13.926;2024-02-26T11:12:49;96810.69;;;10.17;100.00
52983;BME280;48698;45.736;13.926;2024-02-26T11:17:53;96645.53;;;9.44;100.00
52983;BME280;48698;45.736;13.926;2024-02-26T11:22:58;96767.28;;;10.85;100.00
52983;BME280;48698;45.736;13.926;2024-02-26T11:28:04;96554.84;;;10.07;100.00
52983;BME280;48698;45.736;13.926;2024-02-26T11:33:09;96535.78;;;10.14;100.00
52983;BME280;48698;45.736;13.926;2024-02-26T11:38:19;96750.47;;;11.37;100.00
52983;BME280;48698;45.736;13.926;2024-02-26T11:43:57;96724.88;;;11.36;100.00
52983;BME280;48698;45.736;13.926;2024-02-26T11:49:03;96734.84;;;11.20;100.00
52983;BME280;48698;45.736;13.926;2024-02-26T11:54:49;96737.38;;;11.09;100.00
52983;BME280;48698;45.736;13.926;2024-02-26T12:05:19;96708.97;;;10.97;100.00
52983;BME280;48698;45.736;13.926;2024-02-26T12:10:28;96636.47;;;10.69;100.00
52983;BME280;48698;45.736;13.926;2024-02-26T12:15:41;96712.00;;;11.30;100.00
52983;BME280;48698;45.736;13.926;2024-02-26T12:20:46;96554.84;;;10.07;100.00
52983;BME280;48698;45.736;13.926;2024-02-26T12:25:50;96624.06;;;10.30;100.00
52983;BME280;48698;45.736;13.926;2024-02-26T12:30:53;96686.59;;;10.74;100.00
52983;BME280;48698;45.736;13.926;2024-02-26T12:35:58;96707.47;;;10.53;100.00
52983;BME280;48698;45.736;13.926;2024-02-26T12:41:02;96624.97;;;10.03;100.00
52983;BME280;48698;45.736;13.926;2024-02-26T12:46:05;96631.16;;;10.30;100.00
52983;BME280;48698;45.736;13.926;2024-02-26T12:51:10;96721.38;;;10.83;100.00
52983;BME280;48698;45.736;13.926;2024-02-26T12:56:14;96525.38;;;9.84;100.00
52983;BME280;48698;45.736;13.926;2024-02-26T13:01:21;96691.47;;;11.07;100.00
52983;BME280;48698;45.736;13.926;2024-02-26T13:06:25;96639.22;;;10.80;100.00
52983;BME280;48698;45.736;13.926;2024-02-26T13:11:29;96696.25;;;11.27;100.00
52983;BME280;48698;45.736;13.926;2024-02-26T13:16:34;96618.31;;;10.88;100.00
52983;BME280;48698;45.736;13.926;2024-02-26T13:21:38;96428.47;;;9.80;100.00
52983;BME280;48698;45.736;13.926;2024-02-26T13:26:42;96702.31;;;11.29;100.00
52983;BME280;48698;45.736;13.926;2024-02-26T13:31:47;96701.13;;;11.08;100.00
52983;BME280;48698;45.736;13.926;2024-02-26T13:36:54;96658.91;;;10.51;100.00
52983;BME280;48698;45.736;13.926;2024-02-26T13:41:58;96624.22;;;10.27;100.00
52983;BME280;48698;45.736;13.926;2024-02-26T13:47:01;96709.47;;;10.89;100.00
52983;BME280;48698;45.736;13.926;2024-02-26T13:52:05;96472.78;;;9.52;100.00
52983;BME280;48698;45.736;13.926;2024-02-26T13:57:09;96679.72;;;10.84;100.00
52983;BME280;48698;45.736;13.926;2024-02-26T14:02:12;96693.31;;;10.79;100.00
52983;BME280;48698;45.736;13.926;2024-02-26T14:07:16;96478.06;;;9.52;100.00
52983;BME280;48698;45.736;13.926;2024-02-26T14:12:22;96654.09;;;10.70;100.00
52983;BME280;48698;45.736;13.926;2024-02-26T14:17:26;96629.84;;;10.50;100.00
52983;BME280;48698;45.736;13.926;2024-02-26T14:22:30;96490.34;;;9.67;100.00
52983;BME280;48698;45.736;13.926;2024-02-26T14:27:33;96702.22;;;10.78;100.00
52983;BME280;48698;45.736;13.926;2024-02-26T14:32:37;96679.41;;;10.76;100.00
52983;BME280;48698;45.736;13.926;2024-02-26T14:37:41;96730.44;;;10.94;100.00
52983;BME280;48698;45.736;13.926;2024-02-26T14:42:48;96687.56;;;10.73;100.00
52983;BME280;48698;45.736;13.926;2024-02-26T14:47:52;96709.03;;;10.82;100.00
52983;BME280;48698;45.736;13.926;2024-02-26T14:52:55;96741.66;;;10.84;100.00
52983;BME280;48698;45.736;13.926;2024-02-26T14:57:59;96734.06;;;10.66;100.00
52983;BME280;48698;45.736;13.926;2024-02-26T15:03:06;96673.25;;;10.22;100.00
52983;BME280;48698;45.736;13.926;2024-02-26T15:08:10;96734.22;;;10.50;100.00
52983;BME280;48698;45.736;13.926;2024-02-26T15:13:18;96727.44;;;10.59;100.00
52983;BME280;48698;45.736;13.926;2024-02-26T15:18:21;96735.03;;;10.51;100.00
52983;BME280;48698;45.736;13.926;2024-02-26T15:23:25;96709.13;;;10.27;100.00
52983;BME280;48698;45.736;13.926;2024-02-26T15:28:31;96723.81;;;10.47;100.00
52983;BME280;48698;45.736;13.926;2024-02-26T15:33:34;96711.31;;;10.35;100.00
52983;BME280;48698;45.736;13.926;2024-02-26T15:38:38;96724.38;;;10.38;100.00
52983;BME280;48698;45.736;13.926;2024-02-26T15:43:43;96686.50;;;10.08;100.00
52983;BME280;48698;45.736;13.926;2024-02-26T15:48:46;96669.28;;;9.74;100.00
52983;BME280;48698;45.736;13.926;2024-02-26T15:53:51;96713.94;;;9.94;100.00
52983;BME280;48698;45.736;13.926;2024-02-26T15:58:55;96739.50;;;10.09;100.00
52983;BME280;48698;45.736;13.926;2024-02-26T16:03:59;96731.94;;;10.03;100.00
52983;BME280;48698;45.736;13.926;2024-02-26T16:09:03;96723.91;;;9.91;100.00
52983;BME280;48698;45.736;13.926;2024-02-26T16:14:46;96741.69;;;9.88;100.00
52983;BME280;48698;45.736;13.926;2024-02-26T16:19:52;96761.50;;;9.83;100.00
52983;BME280;48698;45.736;13.926;2024-02-26T16:24:55;96732.03;;;9.59;100.00
52983;BME280;48698;45.736;13.926;2024-02-26T16:29:59;96683.75;;;9.26;100.00
52983;BME280;48698;45.736;13.926;2024-02-26T16:35:03;96655.59;;;8.95;100.00
52983;BME280;48698;45.736;13.926;2024-02-26T16:40:07;96768.66;;;9.53;100.00
52983;BME280;48698;45.736;13.926;2024-02-26T16:45:14;96774.41;;;9.45;100.00
52983;BME280;48698;45.736;13.926;2024-02-26T16:50:17;96756.22;;;9.25;100.00
52983;BME280;48698;45.736;13.926;2024-02-26T16:55:21;96661.97;;;8.33;100.00
52983;BME280;48698;45.736;13.926;2024-02-26T17:00:25;96794.41;;;9.07;100.00
52983;BME280;48698;45.736;13.926;2024-02-26T17:05:28;96787.56;;;9.03;100.00
52983;BME280;48698;45.736;13.926;2024-02-26T17:10:32;96804.56;;;9.14;100.00
52983;BME280;48698;45.736;13.926;2024-02-26T17:15:36;96781.66;;;7.72;100.00
52983;BME280;48698;45.736;13.926;2024-02-26T17:20:40;96709.56;;;7.22;100.00
52983;BME280;48698;45.736;13.926;2024-02-26T17:25:43;96802.78;;;7.90;100.00
52983;BME280;48698;45.736;13.926;2024-02-26T17:30:47;96783.16;;;6.94;100.00
52983;BME280;48698;45.736;13.926;2024-02-26T17:35:50;96890.97;;;7.20;100.00
52983;BME280;48698;45.736;13.926;2024-02-26T17:40:53;96578.59;;;5.48;100.00
52983;BME280;48698;45.736;13.926;2024-02-26T17:45:57;96885.53;;;7.23;100.00
52983;BME280;48698;45.736;13.926;2024-02-26T17:51:01;96857.34;;;7.41;100.00
52983;BME280;48698;45.736;13.926;2024-02-26T17:56:06;96854.75;;;7.39;100.00
52983;BME280;48698;45.736;13.926;2024-02-26T18:01:10;96864.47;;;7.04;100.00
52983;BME280;48698;45.736;13.926;2024-02-26T18:06:14;96845.75;;;6.56;100.00
52983;BME280;48698;45.736;13.926;2024-02-26T18:11:18;96587.06;;;4.80;100.00
52983;BME280;48698;45.736;13.926;2024-02-26T18:16:21;96687.25;;;5.33;100.00
52983;BME280;48698;45.736;13.926;2024-02-26T18:21:25;96817.25;;;6.08;100.00
52983;BME280;48698;45.736;13.926;2024-02-26T18:26:29;96844.69;;;6.41;100.00
52983;BME280;48698;45.736;13.926;2024-02-26T18:31:32;96729.19;;;5.74;100.00
52983;BME280;48698;45.736;13.926;2024-02-26T18:36:36;96752.94;;;6.12;100.00
52983;BME280;48698;45.736;13.926;2024-02-26T18:41:40;96722.22;;;5.73;100.00
52983;BME280;48698;45.736;13.926;2024-02-26T18:46:44;96824.03;;;7.21;100.00
52983;BME280;48698;45.736;13.926;2024-02-26T18:51:49;96672.16;;;6.97;100.00
52983;BME280;48698;45.736;13.926;2024-02-26T18:56:53;96765.94;;;7.87;100.00
52983;BME280;48698;45.736;13.926;2024-02-26T19:01:56;96666.75;;;6.65;100.00
52983;BME280;48698;45.736;13.926;2024-02-26T19:07:00;96603.22;;;6.01;100.00
52983;BME280;48698;45.736;13.926;2024-02-26T19:12:04;96713.03;;;6.01;100.00
52983;BME280;48698;45.736;13.926;2024-02-26T19:17:08;96628.13;;;5.21;100.00
52983;BME280;48698;45.736;13.926;2024-02-26T19:22:12;96806.47;;;7.20;100.00
52983;BME280;48698;45.736;13.926;2024-02-26T19:27:19;96770.09;;;7.42;100.00
52983;BME280;48698;45.736;13.926;2024-02-26T19:32:26;96766.06;;;7.68;100.00
52983;BME280;48698;45.736;13.926;2024-02-26T19:37:32;96832.38;;;8.29;100.00
52983;BME280;48698;45.736;13.926;2024-02-26T19:42:35;96801.53;;;8.12;100.00
52983;BME280;48698;45.736;13.926;2024-02-26T19:47:43;96873.00;;;8.75;100.00
52983;BME280;48698;45.736;13.926;2024-02-26T19:52:46;96699.16;;;7.83;100.00
52983;BME280;48698;45.736;13.926;2024-02-26T19:57:50;96765.06;;;8.35;100.00
52983;BME280;48698;45.736;13.926;2024-02-26T20:02:57;96692.84;;;7.86;100.00
52983;BME280;48698;45.736;13.926;2024-02-26T20:08:01;96776.56;;;8.49;100.00
52983;BME280;48698;45.736;13.926;2024-02-26T20:13:04;96791.41;;;8.52;100.00
52983;BME280;48698;45.736;13.926;2024-02-26T20:18:08;96733.88;;;8.24;100.00
52983;BME280;48698;45.736;13.926;2024-02-26T20:28:17;96868.47;;;8.93;100.00
52983;BME280;48698;45.736;13.926;2024-02-26T20:33:21;96684.66;;;7.90;100.00
52983;BME280;48698;45.736;13.926;2024-02-26T20:38:26;96645.44;;;7.67;100.00
52983;BME280;48698;45.736;13.926;2024-02-26T20:43:30;96585.09;;;7.28;100.00
52983;BME280;48698;45.736;13.926;2024-02-26T20:48:34;96681.16;;;7.90;100.00
52983;BME280;48698;45.736;13.926;2024-02-26T20:53:38;96720.66;;;8.24;100.00
52983;BME280;48698;45.736;13.926;2024-02-26T20:58:42;96717.34;;;8.36;100.00
52983;BME280;48698;45.736;13.926;2024-02-26T21:03:46;96749.56;;;8.74;100.00
52983;BME280;48698;45.736;13.926;2024-02-26T21:08:50;96630.19;;;7.88;100.00
52983;BME280;48698;45.736;13.926;2024-02-26T21:13:53;96828.84;;;9.07;100.00
52983;BME280;48698;45.736;13.926;2024-02-26T21:19:00;96608.09;;;7.73;100.00
52983;BME280;48698;45.736;13.926;2024-02-26T21:24:06;96638.19;;;7.86;100.00
52983;BME280;48698;45.736;13.926;2024-02-26T21:29:10;96675.44;;;8.13;100.00
52983;BME280;48698;45.736;13.926;2024-02-26T21:34:14;96750.44;;;8.59;100.00
52983;BME280;48698;45.736;13.926;2024-02-26T21:39:18;96713.84;;;8.04;100.00
52983;BME280;48698;45.736;13.926;2024-02-26T21:44:22;96769.06;;;8.57;100.00
52983;BME280;48698;45.736;13.926;2024-02-26T21:49:25;96764.09;;;8.67;100.00
52983;BME280;48698;45.736;13.926;2024-02-26T21:54:33;96774.44;;;9.01;100.00
52983;BME280;48698;45.736;13.926;2024-02-26T21:59:36;96797.97;;;9.06;100.00
52983;BME280;48698;45.736;13.926;2024-02-26T22:04:40;96600.84;;;7.76;100.00
52983;BME280;48698;45.736;13.926;2024-02-26T22:09:44;96771.72;;;8.87;100.00
52983;BME280;48698;45.736;13.926;2024-02-26T22:14:47;96748.16;;;8.82;100.00
52983;BME280;48698;45.736;13.926;2024-02-26T22:19:54;96619.09;;;7.97;100.00
52983;BME280;48698;45.736;13.926;2024-02-26T22:24:58;96760.84;;;8.92;100.00
52983;BME280;48698;45.736;13.926;2024-02-26T22:30:03;96844.84;;;9.49;100.00
52983;BME280;48698;45.736;13.926;2024-02-26T22:35:07;96779.94;;;9.12;100.00
52983;BME280;48698;45.736;13.926;2024-02-26T22:40:11;96665.72;;;8.29;100.00
52983;BME280;48698;45.736;13.926;2024-02-26T22:45:15;96796.41;;;8.88;100.00
52983;BME280;48698;45.736;13.926;2024-02-26T22:50:19;96774.44;;;8.86;100.00
52983;BME280;48698;45.736;13.926;2024-02-26T22:55:26;96668.19;;;8.32;100.00
52983;BME280;48698;45.736;13.926;2024-02-26T23:00:29;96811.28;;;9.20;100.00
52983;BME280;48698;45.736;13.926;2024-02-26T23:05:34;96690.69;;;8.55;100.00
52983;BME280;48698;45.736;13.926;2024-02-26T23:10:37;96795.03;;;9.26;100.00
52983;BME280;48698;45.736;13.926;2024-02-26T23:15:41;96587.28;;;7.98;100.00
52983;BME280;48698;45.736;13.926;2024-02-26T23:20:45;96555.69;;;7.81;100.00
52983;BME280;48698;45.736;13.926;2024-02-26T23:25:48;96843.31;;;9.31;100.00
52983;BME280;48698;45.736;13.926;2024-02-26T23:30:52;96824.75;;;9.31;100.00
52983;BME280;48698;45.736;13.926;2024-02-26T23:35:56;96591.94;;;8.09;100.00
52983;BME280;48698;45.736;13.926;2024-02-26T23:40:59;96589.25;;;7.95;100.00
52983;BME280;48698;45.736;13.926;2024-02-26T23:46:06;96778.50;;;9.07;100.00
52983;BME280;48698;45.736;13.926;2024-02-26T23:51:12;96569.28;;;7.89;100.00
52983;BME280;48698;45.736;13.926;2024-02-26T23:56:15;96791.34;;;8.99;100.00
